PWSweather.com
Personal Weather Stations
Station Observations
KAZPHOEN90
RayThunderhill, Phoenix, AZ

RayThunderhillPhoenix, AZ

Lat: 33.312, Lon: -112.029

Elevation: 1260

Station Type: Davis Vantage VUE

High Low Average
Temperature 77.0°F25.0°F 53.8°F12.1°F 63.5°F17.5°F
Dew Point 50.9°F10.5°F 39.2°F4.0°F 47.5°F8.6°F
Winds 5.0 mph WNW8.0 mph WNW Calm Calm 1.1 mph 1.8 mph
Wind Gusts 12.0 mph19.3 mph -- 2.7 mph4.3 mph
Humidity 85% 26% 59%
Pressure 29.80 in1009.10 in 29.68 in1005.10 in -
Precipitation 0.05 in1.30 in - -
Hour Temp Dew Point Humidity Winds Wind Gusts Pressure Precip Precip Rate Daily Precip Total
12:00 AM 55.3°F12.9°C 49.6°F9.8°C 81% 4.2 mph NW6.8 kmh NW 10.0 mph16.1 kmh 29.72 in1006.4 mb - 0.00 in0.0 mm 0.00 in0.0 mm
12:15 AM 55.2°F12.9°C 49.5°F9.7°C 81% Calm Calm 1.0 mph1.6 kmh 29.72 in1006.4 mb - 0.00 in0.0 mm 0.00 in0.0 mm
12:30 AM 55.2°F12.9°C 49.5°F9.7°C 81% 1.0 mph NNW1.6 kmh NNW 3.0 mph4.8 kmh 29.72 in1006.4 mb - 0.00 in0.0 mm 0.00 in0.0 mm
12:45 AM 55.1°F12.8°C 49.4°F9.7°C 81% 0.2 mph NW0.3 kmh NW 2.0 mph3.2 kmh 29.71 in1006.1 mb - 0.00 in0.0 mm 0.00 in0.0 mm
01:00 AM 55.8°F13.2°C 49.3°F9.6°C 79% Calm Calm -- 29.70 in1005.8 mb - 0.00 in0.0 mm 0.00 in0.0 mm
01:15 AM 56.0°F13.3°C 49.6°F9.8°C 79% Calm Calm -- 29.69 in1005.4 mb - 0.00 in0.0 mm 0.00 in0.0 mm
01:30 AM 55.4°F13.0°C 49.0°F9.4°C 79% Calm Calm -- 29.69 in1005.4 mb - 0.00 in0.0 mm 0.00 in0.0 mm
01:45 AM 55.1°F12.8°C 49.0°F9.4°C 80% Calm Calm -- 29.69 in1005.4 mb - 0.00 in0.0 mm 0.00 in0.0 mm
02:00 AM 54.9°F12.7°C 49.2°F9.6°C 81% Calm Calm -- 29.69 in1005.4 mb - 0.00 in0.0 mm 0.00 in0.0 mm
02:15 AM 55.1°F12.8°C 49.0°F9.4°C 80% Calm Calm -- 29.69 in1005.4 mb - 0.00 in0.0 mm 0.00 in0.0 mm
02:30 AM 55.6°F13.1°C 48.8°F9.3°C 78% Calm Calm -- 29.69 in1005.4 mb - 0.00 in0.0 mm 0.00 in0.0 mm
02:45 AM 55.4°F13.0°C 49.7°F9.8°C 81% 0.2 mph S0.3 kmh S 1.0 mph1.6 kmh 29.69 in1005.4 mb - 0.00 in0.0 mm 0.00 in0.0 mm
03:00 AM 54.9°F12.7°C 49.9°F9.9°C 83% Calm Calm -- 29.69 in1005.4 mb - 0.00 in0.0 mm 0.00 in0.0 mm
03:15 AM 54.9°F12.7°C 50.2°F10.1°C 84% Calm Calm -- 29.69 in1005.4 mb - 0.00 in0.0 mm 0.00 in0.0 mm
03:30 AM 55.1°F12.8°C 50.0°F10.0°C 83% Calm Calm -- 29.69 in1005.4 mb - 0.00 in0.0 mm 0.00 in0.0 mm
03:45 AM 55.0°F12.8°C 49.9°F9.9°C 83% Calm Calm -- 29.69 in1005.4 mb - 0.00 in0.0 mm 0.00 in0.0 mm
04:00 AM 54.8°F12.7°C 50.1°F10.1°C 84% Calm Calm -- 29.68 in1005.1 mb - 0.00 in0.0 mm 0.00 in0.0 mm
04:15 AM 54.9°F12.7°C 49.8°F9.9°C 83% 0.1 mph SSW0.2 kmh SSW 1.0 mph1.6 kmh 29.68 in1005.1 mb - 0.00 in0.0 mm 0.00 in0.0 mm
04:30 AM 55.2°F12.9°C 49.5°F9.7°C 81% Calm Calm -- 29.68 in1005.1 mb - 0.00 in0.0 mm 0.00 in0.0 mm
04:45 AM 55.1°F12.8°C 49.4°F9.7°C 81% Calm Calm -- 29.68 in1005.1 mb - 0.00 in0.0 mm 0.00 in0.0 mm
05:00 AM 55.0°F12.8°C 49.3°F9.6°C 81% Calm Calm -- 29.68 in1005.1 mb - 0.00 in0.0 mm 0.00 in0.0 mm
05:15 AM 55.2°F12.9°C 49.8°F9.9°C 82% Calm Calm -- 29.68 in1005.1 mb - 0.00 in0.0 mm 0.00 in0.0 mm
05:30 AM 55.3°F12.9°C 50.9°F10.5°C 85% 0.6 mph NW1.0 kmh NW 4.0 mph6.4 kmh 29.70 in1005.8 mb - 0.05 in1.3 mm 0.05 in1.3 mm
05:45 AM 53.9°F12.2°C 48.9°F9.4°C 83% 2.0 mph NW3.2 kmh NW 6.0 mph9.7 kmh 29.70 in1005.8 mb - 0.00 in0.0 mm 0.05 in1.3 mm
06:00 AM 53.8°F12.1°C 48.1°F8.9°C 81% 3.1 mph NW5.0 kmh NW 5.0 mph8.0 kmh 29.71 in1006.1 mb - 0.00 in0.0 mm 0.05 in1.3 mm
06:15 AM 54.3°F12.4°C 48.6°F9.2°C 81% 1.9 mph NW3.1 kmh NW 4.0 mph6.4 kmh 29.71 in1006.1 mb - 0.00 in0.0 mm 0.05 in1.3 mm
06:30 AM 54.9°F12.7°C 48.8°F9.3°C 80% 2.0 mph NNW3.2 kmh NNW 4.0 mph6.4 kmh 29.72 in1006.4 mb - 0.00 in0.0 mm 0.05 in1.3 mm
06:45 AM 55.7°F13.2°C 49.3°F9.6°C 79% 0.7 mph NW1.1 kmh NW 2.0 mph3.2 kmh 29.73 in1006.8 mb - 0.00 in0.0 mm 0.05 in1.3 mm
07:00 AM 56.5°F13.6°C 49.4°F9.7°C 77% 0.7 mph WNW1.1 kmh WNW 4.0 mph6.4 kmh 29.73 in1006.8 mb - 0.00 in0.0 mm 0.05 in1.3 mm
07:15 AM 57.0°F13.9°C 49.5°F9.7°C 76% 1.2 mph WNW1.9 kmh WNW 2.0 mph3.2 kmh 29.73 in1006.8 mb - 0.00 in0.0 mm 0.05 in1.3 mm
07:30 AM 58.2°F14.6°C 49.6°F9.8°C 73% 0.1 mph WSW0.2 kmh WSW 1.0 mph1.6 kmh 29.74 in1007.1 mb - 0.00 in0.0 mm 0.05 in1.3 mm
07:45 AM 59.6°F15.3°C 49.4°F9.7°C 69% 0.9 mph WSW1.4 kmh WSW 8.0 mph12.9 kmh 29.75 in1007.5 mb - 0.00 in0.0 mm 0.05 in1.3 mm
08:00 AM 60.1°F15.6°C 49.5°F9.7°C 68% 1.0 mph WSW1.6 kmh WSW 3.0 mph4.8 kmh 29.75 in1007.5 mb - 0.00 in0.0 mm 0.05 in1.3 mm
08:15 AM 60.2°F15.7°C 49.6°F9.8°C 68% 0.1 mph NW0.2 kmh NW 1.0 mph1.6 kmh 29.75 in1007.5 mb - 0.00 in0.0 mm 0.05 in1.3 mm
08:30 AM 61.4°F16.3°C 49.5°F9.7°C 65% 0.5 mph WSW0.8 kmh WSW 2.0 mph3.2 kmh 29.75 in1007.5 mb - 0.00 in0.0 mm 0.05 in1.3 mm
08:45 AM 63.0°F17.2°C 50.2°F10.1°C 63% 0.9 mph NW1.4 kmh NW 1.0 mph1.6 kmh 29.76 in1007.8 mb - 0.00 in0.0 mm 0.05 in1.3 mm
09:00 AM 62.8°F17.1°C 49.6°F9.8°C 62% 0.2 mph WSW0.3 kmh WSW 1.0 mph1.6 kmh 29.76 in1007.8 mb - 0.00 in0.0 mm 0.05 in1.3 mm
09:15 AM 62.7°F17.1°C 49.5°F9.7°C 62% 2.2 mph NW3.5 kmh NW 2.0 mph3.2 kmh 29.77 in1008.1 mb - 0.00 in0.0 mm 0.05 in1.3 mm
09:30 AM 64.5°F18.1°C 48.9°F9.4°C 57% 0.8 mph SW1.3 kmh SW 2.0 mph3.2 kmh 29.77 in1008.1 mb - 0.00 in0.0 mm 0.05 in1.3 mm
09:45 AM 65.4°F18.6°C 48.8°F9.3°C 55% 2.9 mph WNW4.7 kmh WNW 4.0 mph6.4 kmh 29.77 in1008.1 mb - 0.00 in0.0 mm 0.05 in1.3 mm
10:00 AM 65.8°F18.8°C 47.6°F8.7°C 52% 2.1 mph NNW3.4 kmh NNW 4.0 mph6.4 kmh 29.77 in1008.1 mb - 0.00 in0.0 mm 0.05 in1.3 mm
10:15 AM 66.5°F19.2°C 48.8°F9.3°C 53% 1.8 mph NW2.9 kmh NW 6.0 mph9.7 kmh 29.78 in1008.5 mb - 0.00 in0.0 mm 0.05 in1.3 mm
10:30 AM 66.8°F19.3°C 48.6°F9.2°C 52% 0.5 mph NW0.8 kmh NW 3.0 mph4.8 kmh 29.78 in1008.5 mb - 0.00 in0.0 mm 0.05 in1.3 mm
10:45 AM 67.2°F19.6°C 47.9°F8.8°C 50% 2.6 mph NW4.2 kmh NW 6.0 mph9.7 kmh 29.78 in1008.5 mb - 0.00 in0.0 mm 0.05 in1.3 mm
11:00 AM 67.5°F19.7°C 48.7°F9.3°C 51% 0.7 mph W1.1 kmh W 2.0 mph3.2 kmh 29.78 in1008.5 mb - 0.00 in0.0 mm 0.05 in1.3 mm
11:15 AM 67.4°F19.7°C 47.6°F8.7°C 49% 0.1 mph WNW0.2 kmh WNW -- 29.77 in1008.1 mb - 0.00 in0.0 mm 0.05 in1.3 mm
11:30 AM 69.6°F20.9°C 47.4°F8.6°C 45% 1.6 mph NW2.6 kmh NW 6.0 mph9.7 kmh 29.76 in1007.8 mb - 0.00 in0.0 mm 0.05 in1.3 mm
11:45 AM 69.1°F20.6°C 46.9°F8.3°C 45% 2.0 mph W3.2 kmh W 4.0 mph6.4 kmh 29.76 in1007.8 mb - 0.00 in0.0 mm 0.05 in1.3 mm
12:00 PM 69.7°F20.9°C 46.8°F8.2°C 44% 1.8 mph SW2.9 kmh SW 4.0 mph6.4 kmh 29.75 in1007.5 mb - 0.00 in0.0 mm 0.05 in1.3 mm
12:15 PM 70.3°F21.3°C 46.1°F7.8°C 42% 0.9 mph NW1.4 kmh NW 1.0 mph1.6 kmh 29.75 in1007.5 mb - 0.00 in0.0 mm 0.05 in1.3 mm
12:30 PM 71.3°F21.8°C 45.8°F7.7°C 40% 3.0 mph NW4.8 kmh NW 3.0 mph4.8 kmh 29.75 in1007.5 mb - 0.00 in0.0 mm 0.05 in1.3 mm
12:45 PM 72.2°F22.3°C 45.8°F7.7°C 39% 1.7 mph WSW2.7 kmh WSW 4.0 mph6.4 kmh 29.74 in1007.1 mb - 0.00 in0.0 mm 0.05 in1.3 mm
01:00 PM 73.4°F23.0°C 44.1°F6.7°C 35% 4.7 mph W7.6 kmh W 8.0 mph12.9 kmh 29.73 in1006.8 mb - 0.00 in0.0 mm 0.05 in1.3 mm
01:15 PM 73.2°F22.9°C 43.2°F6.2°C 34% 4.1 mph WSW6.6 kmh WSW 6.0 mph9.7 kmh 29.73 in1006.8 mb - 0.00 in0.0 mm 0.05 in1.3 mm
01:30 PM 73.3°F22.9°C 43.2°F6.2°C 34% 4.6 mph W7.4 kmh W 8.0 mph12.9 kmh 29.73 in1006.8 mb - 0.00 in0.0 mm 0.05 in1.3 mm
01:45 PM 73.4°F23.0°C 43.3°F6.3°C 34% 2.2 mph W3.5 kmh W 7.0 mph11.3 kmh 29.73 in1006.8 mb - 0.00 in0.0 mm 0.05 in1.3 mm
02:00 PM 75.9°F24.4°C 41.3°F5.2°C 29% 3.0 mph WSW4.8 kmh WSW 6.0 mph9.7 kmh 29.72 in1006.4 mb - 0.00 in0.0 mm 0.05 in1.3 mm
02:15 PM 75.0°F23.9°C 39.7°F4.3°C 28% 4.0 mph NW6.4 kmh NW 11.0 mph17.7 kmh 29.72 in1006.4 mb - 0.00 in0.0 mm 0.05 in1.3 mm
02:30 PM 73.9°F23.3°C 45.3°F7.4°C 36% 3.8 mph NNW6.1 kmh NNW 5.0 mph8.0 kmh 29.72 in1006.4 mb - 0.00 in0.0 mm 0.05 in1.3 mm
02:45 PM 73.9°F23.3°C 44.5°F6.9°C 35% 1.9 mph NNW3.1 kmh NNW 3.0 mph4.8 kmh 29.72 in1006.4 mb - 0.00 in0.0 mm 0.05 in1.3 mm
03:00 PM 74.9°F23.8°C 43.0°F6.1°C 32% 2.3 mph W3.7 kmh W 5.0 mph8.0 kmh 29.72 in1006.4 mb - 0.00 in0.0 mm 0.05 in1.3 mm
03:15 PM 75.3°F24.1°C 41.8°F5.4°C 30% 2.2 mph WSW3.5 kmh WSW 3.0 mph4.8 kmh 29.71 in1006.1 mb - 0.00 in0.0 mm 0.05 in1.3 mm
03:30 PM 76.0°F24.4°C 41.4°F5.2°C 29% 2.6 mph NNW4.2 kmh NNW 6.0 mph9.7 kmh 29.70 in1005.8 mb - 0.00 in0.0 mm 0.05 in1.3 mm
03:45 PM 75.7°F24.3°C 40.3°F4.6°C 28% 1.1 mph WNW1.8 kmh WNW 2.0 mph3.2 kmh 29.70 in1005.8 mb - 0.00 in0.0 mm 0.05 in1.3 mm
04:00 PM 77.0°F25.0°C 39.5°F4.2°C 26% 2.1 mph W3.4 kmh W 7.0 mph11.3 kmh 29.70 in1005.8 mb - 0.00 in0.0 mm 0.05 in1.3 mm
04:15 PM 76.7°F24.8°C 39.2°F4.0°C 26% 0.6 mph NW1.0 kmh NW 4.0 mph6.4 kmh 29.70 in1005.8 mb - 0.00 in0.0 mm 0.05 in1.3 mm
04:30 PM 73.4°F23.0°C 44.8°F7.1°C 36% 5.0 mph WNW8.0 kmh WNW 12.0 mph19.3 kmh 29.70 in1005.8 mb - 0.00 in0.0 mm 0.05 in1.3 mm
04:45 PM 70.1°F21.2°C 45.9°F7.7°C 42% 1.9 mph N3.1 kmh N 10.0 mph16.1 kmh 29.72 in1006.4 mb - 0.00 in0.0 mm 0.05 in1.3 mm
05:00 PM 68.4°F20.2°C 45.6°F7.6°C 44% 3.4 mph NNW5.5 kmh NNW 7.0 mph11.3 kmh 29.72 in1006.4 mb - 0.00 in0.0 mm 0.05 in1.3 mm
05:15 PM 68.1°F20.1°C 46.5°F8.1°C 46% 3.0 mph N4.8 kmh N 4.0 mph6.4 kmh 29.72 in1006.4 mb - 0.00 in0.0 mm 0.05 in1.3 mm
05:30 PM 67.7°F19.8°C 47.3°F8.5°C 48% 1.9 mph ENE3.1 kmh ENE 3.0 mph4.8 kmh 29.72 in1006.4 mb - 0.00 in0.0 mm 0.05 in1.3 mm
05:45 PM 67.7°F19.8°C 46.7°F8.2°C 47% 2.0 mph N3.2 kmh N 5.0 mph8.0 kmh 29.72 in1006.4 mb - 0.00 in0.0 mm 0.05 in1.3 mm
06:00 PM 67.8°F19.9°C 47.4°F8.6°C 48% 0.3 mph ESE0.5 kmh ESE 1.0 mph1.6 kmh 29.71 in1006.1 mb - 0.00 in0.0 mm 0.05 in1.3 mm
06:15 PM 68.3°F20.2°C 47.8°F8.8°C 48% 0.4 mph E0.6 kmh E 2.0 mph3.2 kmh 29.72 in1006.4 mb - 0.00 in0.0 mm 0.05 in1.3 mm
06:30 PM 68.0°F20.0°C 47.6°F8.7°C 48% 0.2 mph NE0.3 kmh NE 1.0 mph1.6 kmh 29.72 in1006.4 mb - 0.00 in0.0 mm 0.05 in1.3 mm
06:45 PM 67.2°F19.6°C 48.4°F9.1°C 51% 1.1 mph NE1.8 kmh NE 1.0 mph1.6 kmh 29.73 in1006.8 mb - 0.00 in0.0 mm 0.05 in1.3 mm
07:00 PM 65.9°F18.8°C 48.8°F9.3°C 54% 0.1 mph E0.2 kmh E -- 29.73 in1006.8 mb - 0.00 in0.0 mm 0.05 in1.3 mm
07:15 PM 65.2°F18.4°C 48.2°F9.0°C 54% 0.3 mph NNE0.5 kmh NNE 2.0 mph3.2 kmh 29.73 in1006.8 mb - 0.00 in0.0 mm 0.05 in1.3 mm
07:30 PM 64.6°F18.1°C 48.1°F8.9°C 55% Calm Calm -- 29.74 in1007.1 mb - 0.00 in0.0 mm 0.05 in1.3 mm
07:45 PM 64.5°F18.1°C 48.0°F8.9°C 55% Calm Calm 1.0 mph1.6 kmh 29.74 in1007.1 mb - 0.00 in0.0 mm 0.05 in1.3 mm
08:00 PM 64.8°F18.2°C 47.3°F8.5°C 53% Calm Calm -- 29.75 in1007.5 mb - 0.00 in0.0 mm 0.05 in1.3 mm
08:15 PM 64.9°F18.3°C 47.3°F8.5°C 53% Calm Calm -- 29.76 in1007.8 mb - 0.00 in0.0 mm 0.05 in1.3 mm
08:30 PM 64.7°F18.2°C 47.7°F8.7°C 54% Calm Calm -- 29.77 in1008.1 mb - 0.00 in0.0 mm 0.05 in1.3 mm
08:45 PM 65.1°F18.4°C 47.5°F8.6°C 53% 1.0 mph N1.6 kmh N 3.0 mph4.8 kmh 29.77 in1008.1 mb - 0.00 in0.0 mm 0.05 in1.3 mm
09:00 PM 64.7°F18.2°C 47.2°F8.4°C 53% Calm Calm -- 29.77 in1008.1 mb - 0.00 in0.0 mm 0.05 in1.3 mm
09:15 PM 64.2°F17.9°C 47.7°F8.7°C 55% 0.6 mph N1.0 kmh N 1.0 mph1.6 kmh 29.77 in1008.1 mb - 0.00 in0.0 mm 0.05 in1.3 mm
09:30 PM 63.5°F17.5°C 48.0°F8.9°C 57% Calm Calm 1.0 mph1.6 kmh 29.78 in1008.5 mb - 0.00 in0.0 mm 0.05 in1.3 mm
09:45 PM 62.9°F17.2°C 48.4°F9.1°C 59% 0.1 mph NNW0.2 kmh NNW 1.0 mph1.6 kmh 29.78 in1008.5 mb - 0.00 in0.0 mm 0.05 in1.3 mm
10:00 PM 62.4°F16.9°C 48.3°F9.1°C 60% Calm Calm -- 29.78 in1008.5 mb - 0.00 in0.0 mm 0.05 in1.3 mm
10:15 PM 61.9°F16.6°C 47.8°F8.8°C 60% Calm Calm -- 29.78 in1008.5 mb - 0.00 in0.0 mm 0.05 in1.3 mm
10:30 PM 60.9°F16.1°C 47.8°F8.8°C 62% 0.1 mph NNW0.2 kmh NNW 1.0 mph1.6 kmh 29.79 in1008.8 mb - 0.00 in0.0 mm 0.05 in1.3 mm
10:45 PM 61.6°F16.4°C 48.0°F8.9°C 61% Calm Calm -- 29.79 in1008.8 mb - 0.00 in0.0 mm 0.05 in1.3 mm
11:00 PM 61.7°F16.5°C 48.1°F8.9°C 61% Calm Calm -- 29.79 in1008.8 mb - 0.00 in0.0 mm 0.05 in1.3 mm
11:15 PM 61.7°F16.5°C 48.1°F8.9°C 61% 0.3 mph N0.5 kmh N 1.0 mph1.6 kmh 29.79 in1008.8 mb - 0.00 in0.0 mm 0.05 in1.3 mm
11:30 PM 61.6°F16.4°C 48.0°F8.9°C 61% 0.4 mph E0.6 kmh E 4.0 mph6.4 kmh 29.80 in1009.1 mb - 0.00 in0.0 mm 0.05 in1.3 mm
11:45 PM 61.4°F16.3°C 48.2°F9.0°C 62% Calm Calm 1.0 mph1.6 kmh 29.80 in1009.1 mb - 0.00 in0.0 mm 0.05 in1.3 mm